sensor_id;sensor_type;location;lat;lon;timestamp;temperature;humidity
18733;DHT22;9495;51.210;2.934;2023-11-22T00:01:27;9.40;99.90
18733;DHT22;9495;51.210;2.934;2023-11-22T00:03:58;9.30;99.90
18733;DHT22;9495;51.210;2.934;2023-11-22T00:06:28;9.40;99.90
18733;DHT22;9495;51.210;2.934;2023-11-22T00:08:57;9.50;99.90
18733;DHT22;9495;51.210;2.934;2023-11-22T00:11:25;9.60;99.90
18733;DHT22;9495;51.210;2.934;2023-11-22T00:13:54;9.60;99.90
18733;DHT22;9495;51.210;2.934;2023-11-22T00:16:24;9.60;99.90
18733;DHT22;9495;51.210;2.934;2023-11-22T00:18:53;9.60;99.90
18733;DHT22;9495;51.210;2.934;2023-11-22T00:21:21;9.50;99.90
18733;DHT22;9495;51.210;2.934;2023-11-22T00:23:51;9.50;99.90
18733;DHT22;9495;51.210;2.934;2023-11-22T00:26:19;9.40;99.90
18733;DHT22;9495;51.210;2.934;2023-11-22T00:28:48;9.40;99.90
18733;DHT22;9495;51.210;2.934;2023-11-22T00:31:17;9.50;99.90
18733;DHT22;9495;51.210;2.934;2023-11-22T00:33:46;9.50;99.90
18733;DHT22;9495;51.210;2.934;2023-11-22T00:36:14;9.60;99.90
18733;DHT22;9495;51.210;2.934;2023-11-22T00:38:43;9.80;99.90
18733;DHT22;9495;51.210;2.934;2023-11-22T00:41:14;9.60;99.90
18733;DHT22;9495;51.210;2.934;2023-11-22T00:43:42;9.60;99.90
18733;DHT22;9495;51.210;2.934;2023-11-22T00:46:11;9.50;99.90
18733;DHT22;9495;51.210;2.934;2023-11-22T00:48:40;9.50;99.90
18733;DHT22;9495;51.210;2.934;2023-11-22T00:51:08;9.50;99.90
18733;DHT22;9495;51.210;2.934;2023-11-22T00:53:38;9.50;99.90
18733;DHT22;9495;51.210;2.934;2023-11-22T00:56:06;9.50;99.90
18733;DHT22;9495;51.210;2.934;2023-11-22T00:58:36;9.50;99.90
18733;DHT22;9495;51.210;2.934;2023-11-22T01:01:05;9.30;99.90
18733;DHT22;9495;51.210;2.934;2023-11-22T01:03:33;9.30;99.90
18733;DHT22;9495;51.210;2.934;2023-11-22T01:06:02;9.30;99.90
18733;DHT22;9495;51.210;2.934;2023-11-22T01:08:33;9.30;99.90
18733;DHT22;9495;51.210;2.934;2023-11-22T01:11:04;9.30;99.90
18733;DHT22;9495;51.210;2.934;2023-11-22T01:13:33;9.30;99.90
18733;DHT22;9495;51.210;2.934;2023-11-22T01:16:09;9.30;99.90
18733;DHT22;9495;51.210;2.934;2023-11-22T01:18:38;9.30;99.90
18733;DHT22;9495;51.210;2.934;2023-11-22T01:21:08;9.30;99.90
18733;DHT22;9495;51.210;2.934;2023-11-22T01:23:36;9.30;99.90
18733;DHT22;9495;51.210;2.934;2023-11-22T01:26:05;9.30;99.90
18733;DHT22;9495;51.210;2.934;2023-11-22T01:28:33;9.40;99.90
18733;DHT22;9495;51.210;2.934;2023-11-22T01:31:02;9.30;99.90
18733;DHT22;9495;51.210;2.934;2023-11-22T01:33:32;9.30;99.90
18733;DHT22;9495;51.210;2.934;2023-11-22T01:36:03;9.20;99.90
18733;DHT22;9495;51.210;2.934;2023-11-22T01:38:32;9.10;99.90
18733;DHT22;9495;51.210;2.934;2023-11-22T01:41:01;9.10;99.90
18733;DHT22;9495;51.210;2.934;2023-11-22T01:43:30;9.10;99.90
18733;DHT22;9495;51.210;2.934;2023-11-22T01:45:58;9.10;99.90
18733;DHT22;9495;51.210;2.934;2023-11-22T01:48:28;9.20;99.90
18733;DHT22;9495;51.210;2.934;2023-11-22T01:50:59;9.30;99.90
18733;DHT22;9495;51.210;2.934;2023-11-22T01:53:27;9.30;99.90
18733;DHT22;9495;51.210;2.934;2023-11-22T01:55:57;9.30;99.90
18733;DHT22;9495;51.210;2.934;2023-11-22T01:58:26;9.30;99.90
18733;DHT22;9495;51.210;2.934;2023-11-22T02:00:55;9.30;99.90
18733;DHT22;9495;51.210;2.934;2023-11-22T02:03:25;9.30;99.90
18733;DHT22;9495;51.210;2.934;2023-11-22T02:05:54;9.20;99.90
18733;DHT22;9495;51.210;2.934;2023-11-22T02:08:24;9.20;99.90
18733;DHT22;9495;51.210;2.934;2023-11-22T02:10:58;9.10;99.90
18733;DHT22;9495;51.210;2.934;2023-11-22T02:13:29;9.10;99.90
18733;DHT22;9495;51.210;2.934;2023-11-22T02:15:57;9.10;99.90
18733;DHT22;9495;51.210;2.934;2023-11-22T02:18:26;9.10;99.90
18733;DHT22;9495;51.210;2.934;2023-11-22T02:20:55;9.10;99.90
18733;DHT22;9495;51.210;2.934;2023-11-22T02:23:25;9.10;99.90
18733;DHT22;9495;51.210;2.934;2023-11-22T02:25:55;9.00;99.90
18733;DHT22;9495;51.210;2.934;2023-11-22T02:28:25;9.00;99.90
18733;DHT22;9495;51.210;2.934;2023-11-22T02:30:54;9.10;99.90
18733;DHT22;9495;51.210;2.934;2023-11-22T02:33:23;9.00;99.90
18733;DHT22;9495;51.210;2.934;2023-11-22T02:35:52;8.90;99.90
18733;DHT22;9495;51.210;2.934;2023-11-22T02:38:21;9.00;99.90
18733;DHT22;9495;51.210;2.934;2023-11-22T02:40:51;9.00;99.90
18733;DHT22;9495;51.210;2.934;2023-11-22T02:43:20;9.10;99.90
18733;DHT22;9495;51.210;2.934;2023-11-22T02:45:50;9.10;99.90
18733;DHT22;9495;51.210;2.934;2023-11-22T02:48:19;9.10;99.90
18733;DHT22;9495;51.210;2.934;2023-11-22T02:50:47;9.10;99.90
18733;DHT22;9495;51.210;2.934;2023-11-22T02:53:16;9.10;99.90
18733;DHT22;9495;51.210;2.934;2023-11-22T02:55:45;9.00;99.90
18733;DHT22;9495;51.210;2.934;2023-11-22T02:58:15;9.00;99.90
18733;DHT22;9495;51.210;2.934;2023-11-22T03:00:44;9.00;99.90
18733;DHT22;9495;51.210;2.934;2023-11-22T03:03:13;9.00;99.90
18733;DHT22;9495;51.210;2.934;2023-11-22T03:05:42;9.00;99.90
18733;DHT22;9495;51.210;2.934;2023-11-22T03:08:11;9.00;99.90
18733;DHT22;9495;51.210;2.934;2023-11-22T03:10:40;9.00;99.90
18733;DHT22;9495;51.210;2.934;2023-11-22T03:13:09;9.00;99.90
18733;DHT22;9495;51.210;2.934;2023-11-22T03:15:39;9.00;99.90
18733;DHT22;9495;51.210;2.934;2023-11-22T03:18:07;8.90;99.90
18733;DHT22;9495;51.210;2.934;2023-11-22T03:20:35;8.90;99.90
18733;DHT22;9495;51.210;2.934;2023-11-22T03:23:05;9.00;99.90
18733;DHT22;9495;51.210;2.934;2023-11-22T03:25:33;8.90;99.90
18733;DHT22;9495;51.210;2.934;2023-11-22T03:28:02;8.90;99.90
18733;DHT22;9495;51.210;2.934;2023-11-22T03:30:30;8.90;99.90
18733;DHT22;9495;51.210;2.934;2023-11-22T03:33:00;8.90;99.90
18733;DHT22;9495;51.210;2.934;2023-11-22T03:35:28;8.90;99.90
18733;DHT22;9495;51.210;2.934;2023-11-22T03:37:57;9.00;99.90
18733;DHT22;9495;51.210;2.934;2023-11-22T03:40:26;8.90;99.90
18733;DHT22;9495;51.210;2.934;2023-11-22T03:42:54;8.90;99.90
18733;DHT22;9495;51.210;2.934;2023-11-22T03:45:23;8.90;99.90
18733;DHT22;9495;51.210;2.934;2023-11-22T03:47:51;9.00;99.90
18733;DHT22;9495;51.210;2.934;2023-11-22T03:50:22;9.00;99.90
18733;DHT22;9495;51.210;2.934;2023-11-22T03:52:50;9.00;99.90
18733;DHT22;9495;51.210;2.934;2023-11-22T03:55:19;9.00;99.90
18733;DHT22;9495;51.210;2.934;2023-11-22T03:57:47;9.00;99.90
18733;DHT22;9495;51.210;2.934;2023-11-22T04:00:16;9.00;99.90
18733;DHT22;9495;51.210;2.934;2023-11-22T04:02:45;9.00;99.90
18733;DHT22;9495;51.210;2.934;2023-11-22T04:05:14;9.00;99.90
18733;DHT22;9495;51.210;2.934;2023-11-22T04:07:44;9.00;99.90
18733;DHT22;9495;51.210;2.934;2023-11-22T04:10:12;9.00;99.90
18733;DHT22;9495;51.210;2.934;2023-11-22T04:12:41;9.00;99.90
18733;DHT22;9495;51.210;2.934;2023-11-22T04:15:10;9.00;99.90
18733;DHT22;9495;51.210;2.934;2023-11-22T04:17:38;9.10;99.90
18733;DHT22;9495;51.210;2.934;2023-11-22T04:20:09;9.00;99.90
18733;DHT22;9495;51.210;2.934;2023-11-22T04:22:38;9.00;99.90
18733;DHT22;9495;51.210;2.934;2023-11-22T04:25:08;9.00;99.90
18733;DHT22;9495;51.210;2.934;2023-11-22T04:27:37;9.10;99.90
18733;DHT22;9495;51.210;2.934;2023-11-22T04:30:06;9.00;99.90
18733;DHT22;9495;51.210;2.934;2023-11-22T04:32:40;9.10;99.90
18733;DHT22;9495;51.210;2.934;2023-11-22T04:35:10;9.00;99.90
18733;DHT22;9495;51.210;2.934;2023-11-22T04:37:38;9.00;99.90
18733;DHT22;9495;51.210;2.934;2023-11-22T04:40:09;8.90;99.90
18733;DHT22;9495;51.210;2.934;2023-11-22T04:42:38;9.00;99.90
18733;DHT22;9495;51.210;2.934;2023-11-22T04:45:07;9.00;99.90
18733;DHT22;9495;51.210;2.934;2023-11-22T04:47:37;8.90;99.90
18733;DHT22;9495;51.210;2.934;2023-11-22T04:50:06;8.90;99.90
18733;DHT22;9495;51.210;2.934;2023-11-22T04:52:35;8.80;99.90
18733;DHT22;9495;51.210;2.934;2023-11-22T04:55:03;8.90;99.90
18733;DHT22;9495;51.210;2.934;2023-11-22T04:57:33;9.00;99.90
18733;DHT22;9495;51.210;2.934;2023-11-22T05:00:02;9.00;99.90
18733;DHT22;9495;51.210;2.934;2023-11-22T05:02:32;9.00;99.90
18733;DHT22;9495;51.210;2.934;2023-11-22T05:05:01;9.00;99.90
18733;DHT22;9495;51.210;2.934;2023-11-22T05:07:29;9.00;99.90
18733;DHT22;9495;51.210;2.934;2023-11-22T05:09:58;8.90;99.90
18733;DHT22;9495;51.210;2.934;2023-11-22T05:12:27;9.00;99.90
18733;DHT22;9495;51.210;2.934;2023-11-22T05:14:56;9.00;99.90
18733;DHT22;9495;51.210;2.934;2023-11-22T05:17:25;8.90;99.90
18733;DHT22;9495;51.210;2.934;2023-11-22T05:19:54;8.90;99.90
18733;DHT22;9495;51.210;2.934;2023-11-22T05:22:23;8.90;99.90
18733;DHT22;9495;51.210;2.934;2023-11-22T05:24:51;8.90;99.90
18733;DHT22;9495;51.210;2.934;2023-11-22T05:27:20;8.90;99.90
18733;DHT22;9495;51.210;2.934;2023-11-22T05:29:49;8.90;99.90
18733;DHT22;9495;51.210;2.934;2023-11-22T05:32:23;8.80;99.90
18733;DHT22;9495;51.210;2.934;2023-11-22T05:34:51;8.80;99.90
18733;DHT22;9495;51.210;2.934;2023-11-22T05:37:20;8.80;99.90
18733;DHT22;9495;51.210;2.934;2023-11-22T05:39:51;8.90;99.90
18733;DHT22;9495;51.210;2.934;2023-11-22T05:42:20;8.80;99.90
18733;DHT22;9495;51.210;2.934;2023-11-22T05:44:48;8.80;99.90
18733;DHT22;9495;51.210;2.934;2023-11-22T05:47:17;8.70;99.90
18733;DHT22;9495;51.210;2.934;2023-11-22T05:49:47;8.70;99.90
18733;DHT22;9495;51.210;2.934;2023-11-22T05:52:17;8.70;99.90
18733;DHT22;9495;51.210;2.934;2023-11-22T05:54:46;8.60;99.90
18733;DHT22;9495;51.210;2.934;2023-11-22T05:57:15;8.60;99.90
18733;DHT22;9495;51.210;2.934;2023-11-22T05:59:44;8.70;99.90
18733;DHT22;9495;51.210;2.934;2023-11-22T06:02:13;8.70;99.90
18733;DHT22;9495;51.210;2.934;2023-11-22T06:04:42;8.70;99.90
18733;DHT22;9495;51.210;2.934;2023-11-22T06:07:12;8.70;99.90
18733;DHT22;9495;51.210;2.934;2023-11-22T06:09:40;8.70;99.90
18733;DHT22;9495;51.210;2.934;2023-11-22T06:12:09;8.80;99.90
18733;DHT22;9495;51.210;2.934;2023-11-22T06:14:37;8.70;99.90
18733;DHT22;9495;51.210;2.934;2023-11-22T06:17:06;8.70;99.90
18733;DHT22;9495;51.210;2.934;2023-11-22T06:19:35;8.60;99.90
18733;DHT22;9495;51.210;2.934;2023-11-22T06:22:04;8.70;99.90
18733;DHT22;9495;51.210;2.934;2023-11-22T06:24:35;8.70;99.90
18733;DHT22;9495;51.210;2.934;2023-11-22T06:27:04;8.60;99.90
18733;DHT22;9495;51.210;2.934;2023-11-22T06:29:32;8.60;99.90
18733;DHT22;9495;51.210;2.934;2023-11-22T06:32:01;8.60;99.90
18733;DHT22;9495;51.210;2.934;2023-11-22T06:34:30;8.50;99.90
18733;DHT22;9495;51.210;2.934;2023-11-22T06:36:58;8.50;99.90
18733;DHT22;9495;51.210;2.934;2023-11-22T06:39:27;8.50;99.90
18733;DHT22;9495;51.210;2.934;2023-11-22T06:41:57;8.50;99.90
18733;DHT22;9495;51.210;2.934;2023-11-22T06:44:25;8.40;99.90
18733;DHT22;9495;51.210;2.934;2023-11-22T06:46:55;8.30;99.90
18733;DHT22;9495;51.210;2.934;2023-11-22T06:49:24;8.30;99.90
18733;DHT22;9495;51.210;2.934;2023-11-22T06:51:52;8.30;99.90
18733;DHT22;9495;51.210;2.934;2023-11-22T06:54:21;8.30;99.90
18733;DHT22;9495;51.210;2.934;2023-11-22T06:56:49;8.30;99.90
18733;DHT22;9495;51.210;2.934;2023-11-22T06:59:19;8.20;99.90
18733;DHT22;9495;51.210;2.934;2023-11-22T07:01:48;8.20;99.90
18733;DHT22;9495;51.210;2.934;2023-11-22T07:04:16;8.20;99.90
18733;DHT22;9495;51.210;2.934;2023-11-22T07:06:45;8.20;99.90
18733;DHT22;9495;51.210;2.934;2023-11-22T07:09:14;8.10;99.90
18733;DHT22;9495;51.210;2.934;2023-11-22T07:11:43;8.10;99.90
18733;DHT22;9495;51.210;2.934;2023-11-22T07:14:12;8.10;99.90
18733;DHT22;9495;51.210;2.934;2023-11-22T07:16:42;8.10;99.90
18733;DHT22;9495;51.210;2.934;2023-11-22T07:19:11;8.10;99.90
18733;DHT22;9495;51.210;2.934;2023-11-22T07:21:40;8.00;99.90
18733;DHT22;9495;51.210;2.934;2023-11-22T07:24:08;8.00;99.90
18733;DHT22;9495;51.210;2.934;2023-11-22T07:26:41;8.00;99.90
18733;DHT22;9495;51.210;2.934;2023-11-22T07:29:10;8.00;99.90
18733;DHT22;9495;51.210;2.934;2023-11-22T07:31:39;7.90;99.90
18733;DHT22;9495;51.210;2.934;2023-11-22T07:34:10;7.90;99.90
18733;DHT22;9495;51.210;2.934;2023-11-22T07:36:40;7.90;99.90
18733;DHT22;9495;51.210;2.934;2023-11-22T07:39:09;7.90;99.90
18733;DHT22;9495;51.210;2.934;2023-11-22T07:41:39;7.90;99.90
18733;DHT22;9495;51.210;2.934;2023-11-22T07:44:08;7.90;99.90
18733;DHT22;9495;51.210;2.934;2023-11-22T07:46:42;7.80;99.90
18733;DHT22;9495;51.210;2.934;2023-11-22T07:49:13;7.90;99.90
18733;DHT22;9495;51.210;2.934;2023-11-22T07:51:43;7.80;99.90
18733;DHT22;9495;51.210;2.934;2023-11-22T07:54:12;7.80;99.90
18733;DHT22;9495;51.210;2.934;2023-11-22T07:56:42;7.80;99.90
18733;DHT22;9495;51.210;2.934;2023-11-22T07:59:11;7.80;99.90
18733;DHT22;9495;51.210;2.934;2023-11-22T08:01:42;7.80;99.90
18733;DHT22;9495;51.210;2.934;2023-11-22T08:04:13;7.80;99.90
18733;DHT22;9495;51.210;2.934;2023-11-22T08:06:41;7.80;99.90
18733;DHT22;9495;51.210;2.934;2023-11-22T08:09:10;7.70;99.90
18733;DHT22;9495;51.210;2.934;2023-11-22T08:11:39;7.80;99.90
18733;DHT22;9495;51.210;2.934;2023-11-22T08:14:08;7.80;99.90
18733;DHT22;9495;51.210;2.934;2023-11-22T08:16:36;7.90;99.90
18733;DHT22;9495;51.210;2.934;2023-11-22T08:19:09;7.90;99.90
18733;DHT22;9495;51.210;2.934;2023-11-22T08:21:40;8.10;99.90
18733;DHT22;9495;51.210;2.934;2023-11-22T08:24:09;8.20;99.90
18733;DHT22;9495;51.210;2.934;2023-11-22T08:26:40;8.20;99.90
18733;DHT22;9495;51.210;2.934;2023-11-22T08:29:09;8.20;99.90
18733;DHT22;9495;51.210;2.934;2023-11-22T08:31:38;8.20;99.90
18733;DHT22;9495;51.210;2.934;2023-11-22T08:34:07;8.20;99.90
18733;DHT22;9495;51.210;2.934;2023-11-22T08:36:36;8.20;99.90
18733;DHT22;9495;51.210;2.934;2023-11-22T08:39:06;8.20;99.90
18733;DHT22;9495;51.210;2.934;2023-11-22T08:41:35;8.30;99.90
18733;DHT22;9495;51.210;2.934;2023-11-22T08:44:05;8.30;99.90
18733;DHT22;9495;51.210;2.934;2023-11-22T08:46:34;8.40;99.90
18733;DHT22;9495;51.210;2.934;2023-11-22T08:49:02;8.40;99.90
18733;DHT22;9495;51.210;2.934;2023-11-22T08:51:31;8.40;99.90
18733;DHT22;9495;51.210;2.934;2023-11-22T08:54:01;8.40;99.90
18733;DHT22;9495;51.210;2.934;2023-11-22T08:56:30;8.40;99.90
18733;DHT22;9495;51.210;2.934;2023-11-22T08:58:59;8.40;99.90
18733;DHT22;9495;51.210;2.934;2023-11-22T09:01:27;8.50;99.90
18733;DHT22;9495;51.210;2.934;2023-11-22T09:03:56;8.50;99.90
18733;DHT22;9495;51.210;2.934;2023-11-22T09:06:25;8.50;99.90
18733;DHT22;9495;51.210;2.934;2023-11-22T09:08:56;8.50;99.90
18733;DHT22;9495;51.210;2.934;2023-11-22T09:11:25;8.50;99.90
18733;DHT22;9495;51.210;2.934;2023-11-22T09:13:55;8.40;99.90
18733;DHT22;9495;51.210;2.934;2023-11-22T09:16:24;8.50;99.90
18733;DHT22;9495;51.210;2.934;2023-11-22T09:18:53;8.60;99.90
18733;DHT22;9495;51.210;2.934;2023-11-22T09:21:23;8.60;99.90
18733;DHT22;9495;51.210;2.934;2023-11-22T09:23:52;8.60;99.90
18733;DHT22;9495;51.210;2.934;2023-11-22T09:26:21;8.70;99.90
18733;DHT22;9495;51.210;2.934;2023-11-22T09:28:50;8.80;99.90
18733;DHT22;9495;51.210;2.934;2023-11-22T09:31:20;8.90;99.90
18733;DHT22;9495;51.210;2.934;2023-11-22T09:33:48;9.80;99.90
18733;DHT22;9495;51.210;2.934;2023-11-22T09:36:17;9.60;99.90
18733;DHT22;9495;51.210;2.934;2023-11-22T09:38:46;9.30;99.90
18733;DHT22;9495;51.210;2.934;2023-11-22T09:41:15;9.10;99.90
18733;DHT22;9495;51.210;2.934;2023-11-22T09:43:45;9.10;99.90
18733;DHT22;9495;51.210;2.934;2023-11-22T09:46:16;9.00;99.90
18733;DHT22;9495;51.210;2.934;2023-11-22T09:48:49;9.10;99.90
18733;DHT22;9495;51.210;2.934;2023-11-22T09:51:22;9.10;99.90
18733;DHT22;9495;51.210;2.934;2023-11-22T09:53:55;9.30;99.90
18733;DHT22;9495;51.210;2.934;2023-11-22T09:56:26;9.30;99.90
18733;DHT22;9495;51.210;2.934;2023-11-22T09:58:56;9.20;99.90
18733;DHT22;9495;51.210;2.934;2023-11-22T10:01:28;9.20;99.90
18733;DHT22;9495;51.210;2.934;2023-11-22T10:04:00;9.40;99.90
18733;DHT22;9495;51.210;2.934;2023-11-22T10:06:29;10.10;99.90
18733;DHT22;9495;51.210;2.934;2023-11-22T10:09:01;10.60;99.90
18733;DHT22;9495;51.210;2.934;2023-11-22T10:11:33;10.60;99.90
18733;DHT22;9495;51.210;2.934;2023-11-22T10:14:03;10.70;99.90
18733;DHT22;9495;51.210;2.934;2023-11-22T10:16:31;10.60;99.90
18733;DHT22;9495;51.210;2.934;2023-11-22T10:19:01;10.40;99.90
18733;DHT22;9495;51.210;2.934;2023-11-22T10:21:34;11.10;99.90
18733;DHT22;9495;51.210;2.934;2023-11-22T10:24:03;11.20;99.90
18733;DHT22;9495;51.210;2.934;2023-11-22T10:26:36;12.40;99.90
18733;DHT22;9495;51.210;2.934;2023-11-22T10:29:05;12.60;99.90
18733;DHT22;9495;51.210;2.934;2023-11-22T10:31:36;12.60;99.90
18733;DHT22;9495;51.210;2.934;2023-11-22T10:34:10;14.20;99.90
18733;DHT22;9495;51.210;2.934;2023-11-22T10:36:38;14.60;99.90
18733;DHT22;9495;51.210;2.934;2023-11-22T10:39:08;14.40;99.90
18733;DHT22;9495;51.210;2.934;2023-11-22T10:41:42;13.70;99.90
18733;DHT22;9495;51.210;2.934;2023-11-22T10:44:11;13.60;99.90
18733;DHT22;9495;51.210;2.934;2023-11-22T10:46:42;13.90;99.90
18733;DHT22;9495;51.210;2.934;2023-11-22T10:49:12;13.60;99.90
18733;DHT22;9495;51.210;2.934;2023-11-22T10:51:45;14.10;99.90
18733;DHT22;9495;51.210;2.934;2023-11-22T10:54:15;13.70;99.90
18733;DHT22;9495;51.210;2.934;2023-11-22T10:56:46;13.30;99.90
18733;DHT22;9495;51.210;2.934;2023-11-22T10:59:22;14.70;99.90
18733;DHT22;9495;51.210;2.934;2023-11-22T11:01:56;14.50;99.90
18733;DHT22;9495;51.210;2.934;2023-11-22T11:04:34;14.20;99.90
18733;DHT22;9495;51.210;2.934;2023-11-22T11:07:10;13.80;99.90
18733;DHT22;9495;51.210;2.934;2023-11-22T11:09:42;14.10;99.90
18733;DHT22;9495;51.210;2.934;2023-11-22T11:12:11;13.20;99.90
18733;DHT22;9495;51.210;2.934;2023-11-22T11:14:41;13.00;99.90
18733;DHT22;9495;51.210;2.934;2023-11-22T11:17:13;14.60;99.90
18733;DHT22;9495;51.210;2.934;2023-11-22T11:19:44;15.50;99.90
18733;DHT22;9495;51.210;2.934;2023-11-22T11:22:12;15.80;99.90
18733;DHT22;9495;51.210;2.934;2023-11-22T11:24:47;16.00;99.90
18733;DHT22;9495;51.210;2.934;2023-11-22T11:27:16;15.60;99.90
18733;DHT22;9495;51.210;2.934;2023-11-22T11:29:46;14.80;99.90
18733;DHT22;9495;51.210;2.934;2023-11-22T11:32:20;15.80;99.90
18733;DHT22;9495;51.210;2.934;2023-11-22T11:35:00;16.00;99.90
18733;DHT22;9495;51.210;2.934;2023-11-22T11:37:33;16.60;99.90
18733;DHT22;9495;51.210;2.934;2023-11-22T11:42:52;16.60;99.90
18733;DHT22;9495;51.210;2.934;2023-11-22T11:45:20;14.70;99.90
18733;DHT22;9495;51.210;2.934;2023-11-22T11:47:49;14.50;99.90
18733;DHT22;9495;51.210;2.934;2023-11-22T11:50:20;14.10;99.90
18733;DHT22;9495;51.210;2.934;2023-11-22T11:52:49;14.30;99.90
18733;DHT22;9495;51.210;2.934;2023-11-22T11:55:18;14.80;99.90
18733;DHT22;9495;51.210;2.934;2023-11-22T11:57:46;14.60;99.90
18733;DHT22;9495;51.210;2.934;2023-11-22T12:00:15;13.90;99.90
18733;DHT22;9495;51.210;2.934;2023-11-22T12:02:43;14.60;99.90
18733;DHT22;9495;51.210;2.934;2023-11-22T12:05:12;15.20;99.90
18733;DHT22;9495;51.210;2.934;2023-11-22T12:07:42;15.00;99.90
18733;DHT22;9495;51.210;2.934;2023-11-22T12:10:10;14.60;99.90
18733;DHT22;9495;51.210;2.934;2023-11-22T12:12:43;14.90;99.90
18733;DHT22;9495;51.210;2.934;2023-11-22T12:15:14;14.80;99.90
18733;DHT22;9495;51.210;2.934;2023-11-22T12:17:42;14.70;99.90
18733;DHT22;9495;51.210;2.934;2023-11-22T12:20:12;15.00;99.90
18733;DHT22;9495;51.210;2.934;2023-11-22T12:22:44;14.70;99.90
18733;DHT22;9495;51.210;2.934;2023-11-22T12:25:13;14.60;99.90
18733;DHT22;9495;51.210;2.934;2023-11-22T12:27:42;14.50;99.90
18733;DHT22;9495;51.210;2.934;2023-11-22T12:30:28;14.80;99.90
18733;DHT22;9495;51.210;2.934;2023-11-22T12:33:00;15.30;99.90
18733;DHT22;9495;51.210;2.934;2023-11-22T12:35:30;15.30;99.90
18733;DHT22;9495;51.210;2.934;2023-11-22T12:38:01;15.10;99.90
18733;DHT22;9495;51.210;2.934;2023-11-22T12:40:29;14.30;99.90
18733;DHT22;9495;51.210;2.934;2023-11-22T12:43:00;14.60;99.90
18733;DHT22;9495;51.210;2.934;2023-11-22T12:45:31;14.80;99.90
18733;DHT22;9495;51.210;2.934;2023-11-22T12:48:20;15.40;99.90
18733;DHT22;9495;51.210;2.934;2023-11-22T12:50:51;15.30;99.90
18733;DHT22;9495;51.210;2.934;2023-11-22T12:53:23;15.00;99.90
18733;DHT22;9495;51.210;2.934;2023-11-22T12:55:53;15.00;99.90
18733;DHT22;9495;51.210;2.934;2023-11-22T12:58:23;15.20;99.90
18733;DHT22;9495;51.210;2.934;2023-11-22T13:00:53;15.10;99.90
18733;DHT22;9495;51.210;2.934;2023-11-22T13:03:26;15.10;99.90
18733;DHT22;9495;51.210;2.934;2023-11-22T13:05:54;14.80;99.90
18733;DHT22;9495;51.210;2.934;2023-11-22T13:08:25;14.90;99.90
18733;DHT22;9495;51.210;2.934;2023-11-22T13:10:57;14.90;99.90
18733;DHT22;9495;51.210;2.934;2023-11-22T13:13:26;15.20;99.90
18733;DHT22;9495;51.210;2.934;2023-11-22T13:15:56;14.80;99.90
18733;DHT22;9495;51.210;2.934;2023-11-22T13:18:25;14.40;99.90
18733;DHT22;9495;51.210;2.934;2023-11-22T13:20:54;14.90;99.90
18733;DHT22;9495;51.210;2.934;2023-11-22T13:23:24;14.10;99.90
18733;DHT22;9495;51.210;2.934;2023-11-22T13:25:53;14.20;99.90
18733;DHT22;9495;51.210;2.934;2023-11-22T13:28:21;13.80;99.90
18733;DHT22;9495;51.210;2.934;2023-11-22T13:30:52;14.10;99.90
18733;DHT22;9495;51.210;2.934;2023-11-22T13:33:21;14.00;99.90
18733;DHT22;9495;51.210;2.934;2023-11-22T13:35:49;14.50;99.90
18733;DHT22;9495;51.210;2.934;2023-11-22T13:38:18;15.60;99.90
18733;DHT22;9495;51.210;2.934;2023-11-22T13:40:48;15.60;99.90
18733;DHT22;9495;51.210;2.934;2023-11-22T13:43:17;15.20;99.90
18733;DHT22;9495;51.210;2.934;2023-11-22T13:45:46;15.20;99.90
18733;DHT22;9495;51.210;2.934;2023-11-22T13:48:15;15.50;99.90
18733;DHT22;9495;51.210;2.934;2023-11-22T13:50:44;15.10;99.90
18733;DHT22;9495;51.210;2.934;2023-11-22T13:53:13;14.70;99.90
18733;DHT22;9495;51.210;2.934;2023-11-22T13:55:41;14.70;99.90
18733;DHT22;9495;51.210;2.934;2023-11-22T13:58:11;15.30;99.90
18733;DHT22;9495;51.210;2.934;2023-11-22T14:00:40;15.00;99.90
18733;DHT22;9495;51.210;2.934;2023-11-22T14:03:08;14.70;99.90
18733;DHT22;9495;51.210;2.934;2023-11-22T14:05:38;14.50;99.90
18733;DHT22;9495;51.210;2.934;2023-11-22T14:08:07;14.70;99.90
18733;DHT22;9495;51.210;2.934;2023-11-22T14:10:35;14.40;99.90
18733;DHT22;9495;51.210;2.934;2023-11-22T14:13:04;14.80;99.90
18733;DHT22;9495;51.210;2.934;2023-11-22T14:15:36;15.30;99.90
18733;DHT22;9495;51.210;2.934;2023-11-22T14:18:05;14.90;99.90
18733;DHT22;9495;51.210;2.934;2023-11-22T14:20:34;14.70;99.90
18733;DHT22;9495;51.210;2.934;2023-11-22T14:23:02;14.90;99.90
18733;DHT22;9495;51.210;2.934;2023-11-22T14:25:31;15.30;99.90
18733;DHT22;9495;51.210;2.934;2023-11-22T14:28:00;14.50;99.90
18733;DHT22;9495;51.210;2.934;2023-11-22T14:30:29;14.50;99.90
18733;DHT22;9495;51.210;2.934;2023-11-22T14:33:04;14.40;99.90
18733;DHT22;9495;51.210;2.934;2023-11-22T14:35:34;15.00;99.90
18733;DHT22;9495;51.210;2.934;2023-11-22T14:38:04;14.60;99.90
18733;DHT22;9495;51.210;2.934;2023-11-22T14:40:34;14.50;99.90
18733;DHT22;9495;51.210;2.934;2023-11-22T14:43:07;13.40;99.90
18733;DHT22;9495;51.210;2.934;2023-11-22T14:45:35;13.00;99.90
18733;DHT22;9495;51.210;2.934;2023-11-22T14:48:06;12.80;99.90
18733;DHT22;9495;51.210;2.934;2023-11-22T14:50:36;12.60;99.90
18733;DHT22;9495;51.210;2.934;2023-11-22T14:53:04;12.70;99.90
18733;DHT22;9495;51.210;2.934;2023-11-22T14:55:34;13.40;99.90
18733;DHT22;9495;51.210;2.934;2023-11-22T14:58:07;13.20;99.90
18733;DHT22;9495;51.210;2.934;2023-11-22T15:00:36;13.90;99.90
18733;DHT22;9495;51.210;2.934;2023-11-22T15:03:06;13.60;99.90
18733;DHT22;9495;51.210;2.934;2023-11-22T15:05:35;13.60;99.90
18733;DHT22;9495;51.210;2.934;2023-11-22T15:08:04;14.10;99.90
18733;DHT22;9495;51.210;2.934;2023-11-22T15:10:35;13.70;99.90
18733;DHT22;9495;51.210;2.934;2023-11-22T15:13:04;13.80;99.90
18733;DHT22;9495;51.210;2.934;2023-11-22T15:15:34;13.80;99.90
18733;DHT22;9495;51.210;2.934;2023-11-22T15:18:03;14.00;99.90
18733;DHT22;9495;51.210;2.934;2023-11-22T15:20:32;14.10;99.90
18733;DHT22;9495;51.210;2.934;2023-11-22T15:23:01;14.80;99.90
18733;DHT22;9495;51.210;2.934;2023-11-22T15:25:30;14.10;99.90
18733;DHT22;9495;51.210;2.934;2023-11-22T15:27:59;13.80;99.90
18733;DHT22;9495;51.210;2.934;2023-11-22T15:30:27;13.40;99.90
18733;DHT22;9495;51.210;2.934;2023-11-22T15:32:56;13.20;99.90
18733;DHT22;9495;51.210;2.934;2023-11-22T15:35:25;12.80;99.90
18733;DHT22;9495;51.210;2.934;2023-11-22T15:37:55;13.30;99.90
18733;DHT22;9495;51.210;2.934;2023-11-22T15:40:25;13.30;99.90
18733;DHT22;9495;51.210;2.934;2023-11-22T15:42:53;13.10;99.90
18733;DHT22;9495;51.210;2.934;2023-11-22T15:45:22;13.10;99.90
18733;DHT22;9495;51.210;2.934;2023-11-22T15:47:51;13.00;99.90
18733;DHT22;9495;51.210;2.934;2023-11-22T15:50:19;13.20;99.90
18733;DHT22;9495;51.210;2.934;2023-11-22T15:52:48;12.80;99.90
18733;DHT22;9495;51.210;2.934;2023-11-22T15:55:18;12.90;99.90
18733;DHT22;9495;51.210;2.934;2023-11-22T15:57:46;12.80;99.90
18733;DHT22;9495;51.210;2.934;2023-11-22T16:00:16;12.80;99.90
18733;DHT22;9495;51.210;2.934;2023-11-22T16:02:44;12.60;99.90
18733;DHT22;9495;51.210;2.934;2023-11-22T16:05:13;12.70;99.90
18733;DHT22;9495;51.210;2.934;2023-11-22T16:07:42;13.00;99.90
18733;DHT22;9495;51.210;2.934;2023-11-22T16:10:11;13.40;99.90
18733;DHT22;9495;51.210;2.934;2023-11-22T16:12:41;12.90;99.90